createdAt,value
2019-06-07T00:00:38.187Z,966.08
2019-06-07T00:01:23.431Z,966.06
2019-06-07T00:02:23.424Z,966.04
2019-06-07T00:03:29.388Z,966.09
2019-06-07T00:04:23.271Z,966.08
2019-06-07T00:05:23.249Z,966.04
2019-06-07T00:06:25.473Z,966.03
2019-06-07T00:07:23.143Z,966.01
2019-06-07T00:08:28.608Z,966.00
2019-06-07T00:09:23.002Z,965.96
2019-06-07T00:10:35.787Z,965.98
2019-06-07T00:11:22.971Z,965.98
2019-06-07T00:12:22.841Z,965.97
2019-06-07T00:13:22.785Z,965.91
2019-06-07T00:14:22.735Z,965.92
2019-06-07T00:15:28.852Z,965.87
2019-06-07T00:16:23.429Z,965.90
2019-06-07T00:17:22.577Z,965.90
2019-06-07T00:18:26.040Z,965.94
2019-06-07T00:19:22.468Z,965.97
2019-06-07T00:20:23.657Z,965.97
2019-06-07T00:22:12.364Z,965.94
2019-06-07T00:22:32.502Z,965.93
2019-06-07T00:23:23.020Z,965.94
2019-06-07T00:24:22.299Z,965.93
2019-06-07T00:25:24.436Z,965.92
2019-06-07T00:26:22.102Z,965.87
2019-06-07T00:27:22.673Z,965.85
2019-06-07T00:28:21.987Z,965.80
2019-06-07T00:29:22.237Z,965.82
2019-06-07T00:30:50.583Z,965.84
2019-06-07T00:31:24.157Z,965.83
2019-06-07T00:32:22.266Z,965.86
2019-06-07T00:33:24.818Z,965.85
2019-06-07T00:34:23.166Z,965.89
2019-06-07T00:35:22.541Z,965.85
2019-06-07T00:36:23.221Z,965.86
2019-06-07T00:37:25.340Z,965.89
2019-06-07T00:38:21.928Z,965.89
2019-06-07T00:39:25.226Z,965.92
2019-06-07T00:40:31.472Z,965.91
2019-06-07T00:41:22.300Z,965.87
2019-06-07T00:42:23.948Z,965.85
2019-06-07T00:43:27.929Z,965.79
2019-06-07T00:44:23.267Z,965.83
2019-06-07T00:45:22.495Z,965.83
2019-06-07T00:46:25.129Z,965.86
2019-06-07T00:47:24.938Z,965.85
2019-06-07T00:48:31.357Z,965.87
2019-06-07T00:49:36.066Z,965.84
2019-06-07T00:50:23.938Z,965.89
2019-06-07T00:51:21.922Z,965.86
2019-06-07T00:53:11.100Z,965.86
2019-06-07T00:53:29.860Z,965.83
2019-06-07T00:54:22.472Z,965.84
2019-06-07T00:55:23.443Z,965.80
2019-06-07T00:56:22.139Z,965.78
2019-06-07T00:57:22.152Z,965.79
2019-06-07T00:58:24.348Z,965.83
2019-06-07T00:59:24.388Z,965.80
2019-06-07T01:00:23.567Z,965.78
2019-06-07T01:01:22.741Z,965.81
2019-06-07T01:02:24.701Z,965.80
2019-06-07T01:03:23.554Z,965.80
2019-06-07T01:04:22.819Z,965.81
2019-06-07T01:05:23.506Z,965.82
2019-06-07T01:06:22.928Z,965.82
2019-06-07T01:07:21.533Z,965.84
2019-06-07T01:08:22.758Z,965.81
2019-06-07T01:09:22.326Z,965.80
2019-06-07T01:10:35.232Z,965.80
2019-06-07T01:11:23.150Z,965.81
2019-06-07T01:12:21.323Z,965.77
2019-06-07T01:13:22.734Z,965.80
2019-06-07T01:14:24.063Z,965.78
2019-06-07T01:15:22.189Z,965.80
2019-06-07T01:16:22.246Z,965.79
2019-06-07T01:17:27.765Z,965.81
2019-06-07T01:18:37.862Z,965.79
2019-06-07T01:19:22.262Z,965.79
2019-06-07T01:20:21.280Z,965.77
2019-06-07T01:21:21.717Z,965.79
2019-06-07T01:22:20.691Z,965.75
2019-06-07T01:24:20.030Z,965.74
2019-06-07T01:24:20.093Z,965.73
2019-06-07T01:25:22.374Z,965.74
2019-06-07T01:26:20.535Z,965.73
2019-06-07T01:27:20.612Z,965.74
2019-06-07T01:28:21.396Z,965.69
2019-06-07T01:29:20.046Z,965.67
2019-06-07T01:30:19.520Z,965.68
2019-06-07T01:31:21.092Z,965.70
2019-06-07T01:32:19.351Z,965.66
2019-06-07T01:33:18.507Z,965.66
2019-06-07T01:34:18.550Z,965.71
2019-06-07T01:35:20.229Z,965.69
2019-06-07T01:36:20.064Z,965.67
2019-06-07T01:37:20.028Z,965.64
2019-06-07T01:38:21.987Z,965.66
2019-06-07T01:39:18.796Z,965.61
2019-06-07T01:40:20.772Z,965.58
2019-06-07T01:41:21.643Z,965.57
2019-06-07T01:42:18.680Z,965.60
2019-06-07T01:43:19.563Z,965.57
2019-06-07T01:44:22.318Z,965.58
2019-06-07T01:45:18.392Z,965.58
2019-06-07T01:46:18.189Z,965.58
2019-06-07T01:47:17.893Z,965.56
2019-06-07T01:48:21.007Z,965.54
2019-06-07T01:49:17.641Z,965.53
2019-06-07T01:50:21.164Z,965.50
2019-06-07T01:51:18.930Z,965.50
2019-06-07T01:52:19.402Z,965.49
2019-06-07T01:53:20.762Z,965.44
2019-06-07T01:55:18.965Z,965.46
2019-06-07T01:56:18.586Z,965.48
2019-06-07T01:57:36.575Z,965.45
2019-06-07T01:58:17.168Z,965.41
2019-06-07T01:59:17.767Z,965.38
2019-06-07T02:00:17.366Z,965.43
2019-06-07T02:01:19.148Z,965.39
2019-06-07T02:02:17.785Z,965.40
2019-06-07T02:03:18.525Z,965.42
2019-06-07T02:04:19.234Z,965.38
2019-06-07T02:05:19.118Z,965.40
2019-06-07T02:06:18.425Z,965.39
2019-06-07T02:07:16.632Z,965.40
2019-06-07T02:08:16.577Z,965.41
2019-06-07T02:09:16.521Z,965.41
2019-06-07T02:10:16.501Z,965.39
2019-06-07T02:11:18.047Z,965.40
2019-06-07T02:12:25.598Z,965.40
2019-06-07T02:13:16.304Z,965.41
2019-06-07T02:14:16.252Z,965.38
2019-06-07T02:15:16.195Z,965.39
2019-06-07T02:16:16.181Z,965.41
2019-06-07T02:17:16.087Z,965.44
2019-06-07T02:18:16.032Z,965.46
2019-06-07T02:19:15.982Z,965.47
2019-06-07T02:20:15.933Z,965.47
2019-06-07T02:21:15.895Z,965.47
2019-06-07T02:22:15.813Z,965.46
2019-06-07T02:23:15.762Z,965.48
2019-06-07T02:24:15.706Z,965.46
2019-06-07T02:26:15.633Z,965.49
2019-06-07T02:27:15.569Z,965.51
2019-06-07T02:28:29.887Z,965.55
2019-06-07T02:29:15.435Z,965.54
2019-06-07T02:31:15.326Z,965.47
2019-06-07T02:32:15.308Z,965.47
2019-06-07T02:33:15.217Z,965.46
2019-06-07T02:34:15.205Z,965.45
2019-06-07T02:35:15.112Z,965.45
2019-06-07T02:36:15.055Z,965.43
2019-06-07T02:37:15.032Z,965.40
2019-06-07T02:38:14.948Z,965.38
2019-06-07T02:39:15.986Z,965.36
2019-06-07T02:40:14.868Z,965.37
2019-06-07T02:41:14.781Z,965.41
2019-06-07T02:42:14.734Z,965.36
2019-06-07T02:43:14.674Z,965.36
2019-06-07T02:44:14.624Z,965.37
2019-06-07T02:45:14.595Z,965.34
2019-06-07T02:46:27.748Z,965.33
2019-06-07T02:47:14.455Z,965.32
2019-06-07T02:48:14.413Z,965.31
2019-06-07T02:49:14.382Z,965.31
2019-06-07T02:50:14.296Z,965.32
2019-06-07T02:51:14.240Z,965.34
2019-06-07T02:52:14.191Z,965.31
2019-06-07T02:53:14.162Z,965.29
2019-06-07T02:54:14.115Z,965.24
2019-06-07T02:55:14.087Z,965.25
2019-06-07T02:57:13.911Z,965.24
2019-06-07T02:58:13.892Z,965.24
2019-06-07T02:59:13.803Z,965.27
2019-06-07T03:00:45.892Z,965.28
2019-06-07T03:01:13.707Z,965.33
2019-06-07T03:02:13.646Z,965.35
2019-06-07T03:03:13.595Z,965.34
2019-06-07T03:04:13.529Z,965.32
2019-06-07T03:05:13.514Z,965.34
2019-06-07T03:06:13.419Z,965.36
2019-06-07T03:07:13.381Z,965.38
2019-06-07T03:08:13.316Z,965.36
2019-06-07T03:09:13.259Z,965.32
2019-06-07T03:10:13.385Z,965.30
2019-06-07T03:11:13.153Z,965.34
2019-06-07T03:12:13.131Z,965.33
2019-06-07T03:13:13.041Z,965.34
2019-06-07T03:14:12.987Z,965.32
2019-06-07T03:15:32.241Z,965.28
2019-06-07T03:16:12.882Z,965.31
2019-06-07T03:17:12.873Z,965.35
2019-06-07T03:18:12.771Z,965.29
2019-06-07T03:19:12.715Z,965.34
2019-06-07T03:20:12.660Z,965.33
2019-06-07T03:21:12.606Z,965.32
2019-06-07T03:22:12.582Z,965.34
2019-06-07T03:23:12.503Z,965.38
2019-06-07T03:24:12.445Z,965.39
2019-06-07T03:25:12.389Z,965.38
2019-06-07T03:26:12.334Z,965.36
2019-06-07T03:28:12.225Z,965.33
2019-06-07T03:29:12.174Z,965.35
2019-06-07T03:30:48.809Z,965.36
2019-06-07T03:31:12.101Z,965.32
2019-06-07T03:32:12.055Z,965.33
2019-06-07T03:33:11.953Z,965.33
2019-06-07T03:34:11.952Z,965.40
2019-06-07T03:35:11.897Z,965.37
2019-06-07T03:36:23.193Z,965.35
2019-06-07T03:37:11.736Z,965.36
2019-06-07T03:38:11.679Z,965.38
2019-06-07T03:39:11.626Z,965.39
2019-06-07T03:40:11.574Z,965.36
2019-06-07T03:41:11.563Z,965.39
2019-06-07T03:42:11.467Z,965.38
2019-06-07T03:43:11.417Z,965.37
2019-06-07T03:44:11.354Z,965.43
2019-06-07T03:45:11.310Z,965.43
2019-06-07T03:46:11.295Z,965.42
2019-06-07T03:47:11.193Z,965.43
2019-06-07T03:48:11.139Z,965.45
2019-06-07T03:49:11.081Z,965.45
2019-06-07T03:50:11.029Z,965.45
2019-06-07T03:51:24.024Z,965.44
2019-06-07T03:52:10.925Z,965.50
2019-06-07T03:53:11.521Z,965.49
2019-06-07T03:54:10.811Z,965.46
2019-06-07T03:55:10.790Z,965.43
2019-06-07T03:56:11.381Z,965.41
2019-06-07T03:57:10.648Z,965.38
2019-06-07T03:58:31.558Z,965.35
2019-06-07T03:59:10.543Z,965.34
2019-06-07T04:00:10.518Z,965.35
2019-06-07T04:01:10.432Z,965.35
2019-06-07T04:02:10.421Z,965.34
2019-06-07T04:03:10.324Z,965.30
2019-06-07T04:04:10.270Z,965.36
2019-06-07T04:05:10.217Z,965.41
2019-06-07T04:06:10.162Z,965.37
2019-06-07T04:07:10.141Z,965.43
2019-06-07T04:08:10.056Z,965.38
2019-06-07T04:09:09.997Z,965.41
2019-06-07T04:10:10.991Z,965.33
2019-06-07T04:11:09.890Z,965.36
2019-06-07T04:12:09.843Z,965.38
2019-06-07T04:13:09.797Z,965.34
2019-06-07T04:14:09.741Z,965.35
2019-06-07T04:15:09.707Z,965.34
2019-06-07T04:16:09.621Z,965.31
2019-06-07T04:17:09.563Z,965.35
2019-06-07T04:18:09.510Z,965.39
2019-06-07T04:19:09.507Z,965.35
2019-06-07T04:20:09.437Z,965.39
2019-06-07T04:21:09.354Z,965.35
2019-06-07T04:22:09.333Z,965.34
2019-06-07T04:23:27.248Z,965.34
2019-06-07T04:24:09.188Z,965.32
2019-06-07T04:25:09.177Z,965.32
2019-06-07T04:26:09.080Z,965.30
2019-06-07T04:27:09.030Z,965.26
2019-06-07T04:28:08.971Z,965.24
2019-06-07T04:29:32.400Z,965.26
2019-06-07T04:30:08.911Z,965.22
2019-06-07T04:31:08.810Z,965.22
2019-06-07T04:32:08.764Z,965.20
2019-06-07T04:33:08.702Z,965.19
2019-06-07T04:34:08.647Z,965.13
2019-06-07T04:35:08.633Z,965.12
2019-06-07T04:36:08.546Z,965.13
2019-06-07T04:37:08.487Z,965.16
2019-06-07T04:38:08.440Z,965.17
2019-06-07T04:39:08.378Z,965.14
2019-06-07T04:40:08.357Z,965.17
2019-06-07T04:41:08.274Z,965.12
2019-06-07T04:42:08.217Z,965.13
2019-06-07T04:43:08.163Z,965.11
2019-06-07T04:44:08.111Z,965.10
2019-06-07T04:45:30.715Z,965.13
2019-06-07T04:46:08.011Z,965.08
2019-06-07T04:47:07.947Z,965.12
2019-06-07T04:48:07.893Z,965.09
2019-06-07T04:49:07.887Z,965.12
2019-06-07T04:50:07.786Z,965.13
2019-06-07T04:51:07.756Z,965.13
2019-06-07T04:52:07.680Z,965.15
2019-06-07T04:53:07.654Z,965.18
2019-06-07T04:54:07.607Z,965.20
2019-06-07T04:55:07.521Z,965.13
2019-06-07T04:56:07.509Z,965.15
2019-06-07T04:57:07.412Z,965.16
2019-06-07T04:58:07.357Z,965.20
2019-06-07T04:59:07.304Z,965.18
2019-06-07T05:00:46.620Z,965.17
2019-06-07T05:01:24.344Z,965.21
2019-06-07T05:02:07.142Z,965.20
2019-06-07T05:03:07.093Z,965.21
2019-06-07T05:04:07.044Z,965.20
2019-06-07T05:05:06.983Z,965.19
2019-06-07T05:06:06.978Z,965.23
2019-06-07T05:07:06.920Z,965.21
2019-06-07T05:08:07.939Z,965.17
2019-06-07T05:09:06.773Z,965.15
2019-06-07T05:10:06.759Z,965.13
2019-06-07T05:11:06.664Z,965.11
2019-06-07T05:12:06.610Z,965.16
2019-06-07T05:13:06.564Z,965.16
2019-06-07T05:14:06.518Z,965.17
2019-06-07T05:15:06.485Z,965.18
2019-06-07T05:16:06.431Z,965.24
2019-06-07T05:17:06.356Z,965.22
2019-06-07T05:18:06.307Z,965.16
2019-06-07T05:19:06.272Z,965.14
2019-06-07T05:20:06.189Z,965.10
2019-06-07T05:21:06.145Z,965.11
2019-06-07T05:22:06.080Z,965.12
2019-06-07T05:23:06.026Z,965.16
2019-06-07T05:24:10.022Z,965.21
2019-06-07T05:25:05.942Z,965.14
2019-06-07T05:26:06.043Z,965.19
2019-06-07T05:27:05.941Z,965.16
2019-06-07T05:28:05.796Z,965.12
2019-06-07T05:29:05.712Z,965.07
2019-06-07T05:30:23.717Z,965.06
2019-06-07T05:31:07.829Z,965.08
2019-06-07T05:32:05.553Z,965.04
2019-06-07T05:33:05.497Z,965.02
2019-06-07T05:34:05.449Z,965.03
2019-06-07T05:35:05.401Z,965.03
2019-06-07T05:36:05.370Z,965.06
2019-06-07T05:37:11.408Z,965.01
2019-06-07T05:38:05.240Z,964.97
2019-06-07T05:39:05.185Z,964.96
2019-06-07T05:40:05.155Z,965.01
2019-06-07T05:41:05.078Z,964.95
2019-06-07T05:42:05.030Z,965.02
2019-06-07T05:43:04.970Z,965.04
2019-06-07T05:44:12.584Z,965.08
2019-06-07T05:45:04.865Z,964.96
2019-06-07T05:46:04.811Z,964.96
2019-06-07T05:47:04.763Z,964.95
2019-06-07T05:48:04.937Z,964.88
2019-06-07T05:49:04.660Z,964.95
2019-06-07T05:50:04.781Z,965.00
2019-06-07T05:51:04.564Z,964.85
2019-06-07T05:52:04.504Z,964.96
2019-06-07T05:53:04.483Z,964.84
2019-06-07T05:54:04.397Z,964.79
2019-06-07T05:55:04.380Z,964.85
2019-06-07T05:56:04.564Z,964.77
2019-06-07T05:57:04.240Z,964.77
2019-06-07T05:58:04.187Z,964.76
2019-06-07T05:59:04.132Z,964.74
2019-06-07T06:00:04.113Z,964.74
2019-06-07T06:01:41.435Z,964.69
2019-06-07T06:02:21.461Z,964.64
2019-06-07T06:03:05.967Z,964.63
2019-06-07T06:04:03.869Z,964.70
2019-06-07T06:05:03.842Z,964.63
2019-06-07T06:06:03.771Z,964.66
2019-06-07T06:07:03.720Z,964.68
2019-06-07T06:08:03.691Z,964.65
2019-06-07T06:09:13.250Z,964.61
2019-06-07T06:10:03.564Z,964.62
2019-06-07T06:11:03.501Z,964.57
2019-06-07T06:12:03.481Z,964.52
2019-06-07T06:13:03.396Z,964.51
2019-06-07T06:14:08.161Z,964.53
2019-06-07T06:15:03.293Z,964.57
2019-06-07T06:16:03.241Z,964.47
2019-06-07T06:17:03.228Z,964.53
2019-06-07T06:18:03.136Z,964.52
2019-06-07T06:19:03.082Z,964.52
2019-06-07T06:20:03.033Z,964.51
2019-06-07T06:21:16.219Z,964.55
2019-06-07T06:22:02.958Z,964.53
2019-06-07T06:23:02.871Z,964.46
2019-06-07T06:24:02.852Z,964.52
2019-06-07T06:25:31.053Z,964.56
2019-06-07T06:26:02.715Z,964.50
2019-06-07T06:27:19.020Z,964.43
2019-06-07T06:28:10.954Z,964.53
2019-06-07T06:29:02.590Z,964.43
2019-06-07T06:30:02.507Z,964.38
2019-06-07T06:31:02.453Z,964.49
2019-06-07T06:32:40.546Z,964.44
2019-06-07T06:33:02.374Z,964.47
2019-06-07T06:34:02.330Z,964.51
2019-06-07T06:35:02.267Z,964.45
2019-06-07T06:36:02.193Z,964.43
2019-06-07T06:37:02.141Z,964.44
2019-06-07T06:38:02.119Z,964.42
2019-06-07T06:39:02.035Z,964.35
2019-06-07T06:40:02.031Z,964.35
2019-06-07T06:41:15.076Z,964.32
2019-06-07T06:42:03.904Z,964.39
2019-06-07T06:43:01.866Z,964.34
2019-06-07T06:44:01.811Z,964.39
2019-06-07T06:45:01.778Z,964.41
2019-06-07T06:46:01.856Z,964.44
2019-06-07T06:47:01.622Z,964.49
2019-06-07T06:48:01.623Z,964.44
2019-06-07T06:49:01.514Z,964.54
2019-06-07T06:50:01.460Z,964.47
2019-06-07T06:51:01.415Z,964.54
2019-06-07T06:52:01.359Z,964.58
2019-06-07T06:53:01.360Z,964.48
2019-06-07T06:54:01.260Z,964.57
2019-06-07T06:55:01.424Z,964.54
2019-06-07T06:56:01.147Z,964.57
2019-06-07T06:57:17.729Z,964.49
2019-06-07T06:58:01.077Z,964.52
2019-06-07T06:59:34.586Z,964.52
2019-06-07T07:00:00.943Z,964.55
2019-06-07T07:01:06.494Z,964.58
2019-06-07T07:02:00.836Z,964.58
2019-06-07T07:03:42.319Z,964.58
2019-06-07T07:04:11.974Z,964.57
2019-06-07T07:05:00.712Z,964.58
2019-06-07T07:06:24.591Z,964.66
2019-06-07T07:07:00.576Z,964.65
2019-06-07T07:08:00.582Z,964.62
2019-06-07T07:09:00.470Z,964.57
2019-06-07T07:10:00.448Z,964.57
2019-06-07T07:11:00.371Z,964.56
2019-06-07T07:12:10.866Z,964.53
2019-06-07T07:13:00.294Z,964.63
2019-06-07T07:14:00.306Z,964.61
2019-06-07T07:15:00.164Z,964.59
2019-06-07T07:16:00.108Z,964.64
2019-06-07T07:17:00.055Z,964.56
2019-06-07T07:18:08.167Z,964.65
2019-06-07T07:18:59.986Z,964.62
2019-06-07T07:19:59.902Z,964.68
2019-06-07T07:20:59.849Z,964.67
2019-06-07T07:21:59.800Z,964.67
2019-06-07T07:22:59.784Z,964.75
2019-06-07T07:24:20.115Z,964.59
2019-06-07T07:24:59.644Z,964.69
2019-06-07T07:26:00.269Z,964.68
2019-06-07T07:26:59.540Z,964.74
2019-06-07T07:27:59.525Z,964.71
2019-06-07T07:28:59.439Z,964.73
2019-06-07T07:30:34.766Z,964.69
2019-06-07T07:30:59.363Z,964.70
2019-06-07T07:31:59.284Z,964.80
2019-06-07T07:32:59.467Z,964.75
2019-06-07T07:34:28.265Z,964.83
2019-06-07T07:35:00.729Z,964.76
2019-06-07T07:36:59.936Z,964.65
2019-06-07T07:37:59.882Z,964.69
2019-06-07T07:39:04.713Z,964.70
2019-06-07T07:40:09.731Z,964.66
2019-06-07T07:41:14.024Z,964.63
2019-06-07T07:42:17.736Z,964.65
2019-06-07T07:42:58.726Z,964.66
2019-06-07T07:44:06.038Z,964.67
2019-06-07T07:44:58.617Z,964.63
2019-06-07T07:46:02.746Z,964.62
2019-06-07T07:46:58.526Z,964.58
2019-06-07T07:48:14.772Z,964.58
2019-06-07T07:48:58.413Z,964.59
2019-06-07T07:49:59.167Z,964.54
2019-06-07T07:51:00.908Z,964.51
2019-06-07T07:51:59.059Z,964.51
2019-06-07T07:53:00.642Z,964.56
2019-06-07T07:54:10.050Z,964.59
2019-06-07T07:54:58.542Z,964.63
2019-06-07T07:55:59.917Z,964.61
2019-06-07T07:56:58.043Z,964.58
2019-06-07T07:58:01.619Z,964.57
2019-06-07T07:59:01.960Z,964.53
2019-06-07T08:00:36.234Z,964.58
2019-06-07T08:01:09.326Z,964.53
2019-06-07T08:01:58.715Z,964.64
2019-06-07T08:03:01.708Z,964.61
2019-06-07T08:03:58.763Z,964.54
2019-06-07T08:05:22.704Z,964.64
2019-06-07T08:06:00.041Z,964.54
2019-06-07T08:06:59.037Z,964.72
2019-06-07T08:08:01.560Z,964.58
2019-06-07T08:08:57.435Z,964.59
2019-06-07T08:10:00.995Z,964.55
2019-06-07T08:11:01.336Z,964.56
2019-06-07T08:12:00.782Z,964.57
2019-06-07T08:13:22.717Z,964.60
2019-06-07T08:13:58.777Z,964.61
2019-06-07T08:15:00.430Z,964.55
2019-06-07T08:15:59.656Z,964.64
2019-06-07T08:16:57.958Z,964.61
2019-06-07T08:18:01.193Z,964.44
2019-06-07T08:19:02.687Z,964.46
2019-06-07T08:19:57.615Z,964.51
2019-06-07T08:21:14.995Z,964.52
2019-06-07T08:21:56.766Z,964.44
2019-06-07T08:22:59.781Z,964.60
2019-06-07T08:24:00.593Z,964.44
2019-06-07T08:24:59.848Z,964.43
2019-06-07T08:26:00.900Z,964.48
2019-06-07T08:27:22.530Z,964.43
2019-06-07T08:27:58.620Z,964.42
2019-06-07T08:28:59.733Z,964.36
2019-06-07T08:30:25.394Z,964.39
2019-06-07T08:31:04.337Z,964.55
2019-06-07T08:31:58.098Z,964.44
2019-06-07T08:33:23.518Z,964.28
2019-06-07T08:33:58.103Z,964.32
2019-06-07T08:35:02.400Z,964.33
2019-06-07T08:36:14.230Z,964.29
2019-06-07T08:36:59.169Z,964.24
2019-06-07T08:38:21.572Z,964.27
2019-06-07T08:39:00.609Z,964.26
2019-06-07T08:39:58.812Z,964.19
2019-06-07T08:41:04.374Z,964.18
2019-06-07T08:42:11.880Z,964.18
2019-06-07T08:43:19.893Z,964.24
2019-06-07T08:43:58.451Z,964.24
2019-06-07T08:45:01.528Z,964.20
2019-06-07T08:46:01.312Z,964.19
2019-06-07T08:47:12.583Z,964.14
2019-06-07T08:47:58.166Z,964.09
2019-06-07T08:48:57.159Z,964.10
2019-06-07T08:49:59.602Z,964.12
2019-06-07T08:51:00.847Z,964.06
2019-06-07T08:52:04.525Z,964.11
2019-06-07T08:53:02.957Z,964.10
2019-06-07T08:54:20.604Z,964.00
2019-06-07T08:54:57.870Z,964.00
2019-06-07T08:56:00.893Z,964.08
2019-06-07T08:57:06.500Z,964.02
2019-06-07T08:58:02.281Z,963.97
2019-06-07T08:58:56.846Z,964.01
2019-06-07T08:59:58.417Z,964.00
2019-06-07T09:00:58.081Z,963.99
2019-06-07T09:01:59.662Z,963.95
2019-06-07T09:02:57.809Z,963.88
2019-06-07T09:04:00.183Z,963.93
2019-06-07T09:04:56.994Z,963.97
2019-06-07T09:05:57.189Z,963.88
2019-06-07T09:07:06.771Z,963.85
2019-06-07T09:08:21.756Z,963.86
2019-06-07T09:08:56.094Z,963.92
2019-06-07T09:10:03.487Z,963.90
2019-06-07T09:10:56.590Z,963.91
2019-06-07T09:11:56.493Z,963.91
2019-06-07T09:12:59.449Z,963.84
2019-06-07T09:13:57.047Z,963.87
2019-06-07T09:15:06.689Z,963.86
2019-06-07T09:15:55.977Z,963.82
2019-06-07T09:16:55.418Z,963.82
2019-06-07T09:18:35.009Z,963.74
2019-06-07T09:18:57.041Z,963.76
2019-06-07T09:19:55.622Z,963.75
2019-06-07T09:20:55.224Z,963.77
2019-06-07T09:21:54.674Z,963.83
2019-06-07T09:22:59.187Z,963.75
2019-06-07T09:23:54.698Z,963.76
2019-06-07T09:24:59.454Z,963.72
2019-06-07T09:26:02.703Z,963.71
2019-06-07T09:26:53.580Z,963.72
2019-06-07T09:27:53.566Z,963.76
2019-06-07T09:28:53.516Z,963.74
2019-06-07T09:29:53.438Z,963.71
2019-06-07T09:30:53.391Z,963.74
2019-06-07T09:31:53.929Z,963.72
2019-06-07T09:32:53.295Z,963.70
2019-06-07T09:33:53.280Z,963.65
2019-06-07T09:34:53.208Z,963.71
2019-06-07T09:35:53.160Z,963.66
2019-06-07T09:36:53.106Z,963.63
2019-06-07T09:38:07.289Z,963.58
2019-06-07T09:38:53.049Z,963.62
2019-06-07T09:39:53.007Z,963.50
2019-06-07T09:40:52.929Z,963.53
2019-06-07T09:41:52.871Z,963.51
2019-06-07T09:43:38.327Z,963.53
2019-06-07T09:44:04.580Z,963.48
2019-06-07T09:44:52.734Z,963.53
2019-06-07T09:45:52.689Z,963.51
2019-06-07T09:47:12.788Z,963.48
2019-06-07T09:47:52.592Z,963.58
2019-06-07T09:49:52.496Z,963.45
2019-06-07T09:50:52.454Z,963.43
2019-06-07T09:51:52.405Z,963.47
2019-06-07T09:52:58.523Z,963.50
2019-06-07T09:53:52.358Z,963.38
2019-06-07T09:55:52.230Z,963.49
2019-06-07T09:56:52.175Z,963.53
2019-06-07T09:57:52.123Z,963.50
2019-06-07T09:58:53.967Z,963.48
2019-06-07T09:59:52.029Z,963.38
2019-06-07T10:00:52.006Z,963.39
2019-06-07T10:01:51.938Z,963.42
2019-06-07T10:02:51.897Z,963.33
2019-06-07T10:03:51.842Z,963.38
2019-06-07T10:04:51.825Z,963.34
2019-06-07T10:05:51.753Z,963.29
2019-06-07T10:06:51.700Z,963.33
2019-06-07T10:08:04.045Z,963.27
2019-06-07T10:10:51.515Z,963.30
2019-06-07T10:11:51.520Z,963.24
2019-06-07T10:12:51.422Z,963.22
2019-06-07T10:13:51.375Z,963.20
2019-06-07T10:14:51.331Z,963.30
2019-06-07T10:15:53.637Z,963.14
2019-06-07T10:16:51.271Z,963.15
2019-06-07T10:17:51.237Z,963.18
2019-06-07T10:18:51.143Z,963.09
2019-06-07T10:19:51.159Z,963.10
2019-06-07T10:20:51.049Z,963.09
2019-06-07T10:21:51.045Z,963.06
2019-06-07T10:22:50.960Z,962.98
2019-06-07T10:23:50.939Z,963.01
2019-06-07T10:24:50.869Z,962.92
2019-06-07T10:25:50.851Z,963.00
2019-06-07T10:26:50.804Z,962.97
2019-06-07T10:27:50.731Z,963.03
2019-06-07T10:28:53.456Z,963.06
2019-06-07T10:29:50.643Z,962.98
2019-06-07T10:30:50.597Z,962.97
2019-06-07T10:31:50.618Z,963.05
2019-06-07T10:32:52.193Z,962.97
2019-06-07T10:33:50.454Z,962.97
2019-06-07T10:34:50.409Z,962.96
2019-06-07T10:35:50.366Z,962.95
2019-06-07T10:36:50.339Z,962.95
2019-06-07T10:37:50.316Z,963.03
2019-06-07T10:38:50.231Z,962.91
2019-06-07T10:39:50.180Z,962.87
2019-06-07T10:40:50.141Z,962.88
2019-06-07T10:41:50.091Z,962.88
2019-06-07T10:42:50.085Z,962.91
2019-06-07T10:43:50.003Z,962.95
2019-06-07T10:44:49.956Z,962.91
2019-06-07T10:45:49.912Z,962.95
2019-06-07T10:46:49.877Z,962.97
2019-06-07T10:47:49.866Z,962.91
2019-06-07T10:48:49.778Z,962.87
2019-06-07T10:49:49.749Z,962.86
2019-06-07T10:50:49.713Z,962.78
2019-06-07T10:51:49.653Z,962.78
2019-06-07T10:52:49.632Z,962.82
2019-06-07T10:53:49.590Z,962.83
2019-06-07T10:54:49.511Z,962.78
2019-06-07T10:55:49.469Z,962.79
2019-06-07T10:56:49.426Z,962.71
2019-06-07T10:57:49.380Z,962.73
2019-06-07T10:58:49.366Z,962.70
2019-06-07T10:59:49.293Z,962.69
2019-06-07T11:00:49.248Z,962.67
2019-06-07T11:01:49.204Z,962.66
2019-06-07T11:02:49.157Z,962.66
2019-06-07T11:03:49.144Z,962.59
2019-06-07T11:04:49.070Z,962.60
2019-06-07T11:05:49.027Z,962.56
2019-06-07T11:06:49.013Z,962.55
2019-06-07T11:07:48.936Z,962.53
2019-06-07T11:08:48.925Z,962.55
2019-06-07T11:10:05.636Z,962.55
2019-06-07T11:10:48.806Z,962.51
2019-06-07T11:11:48.822Z,962.51
2019-06-07T11:12:48.721Z,962.53
2019-06-07T11:13:48.706Z,962.44
2019-06-07T11:14:48.630Z,962.45
2019-06-07T11:15:48.585Z,962.42
2019-06-07T11:16:48.546Z,962.41
2019-06-07T11:17:48.505Z,962.40
2019-06-07T11:18:48.481Z,962.40
2019-06-07T11:19:48.415Z,962.37
2019-06-07T11:20:48.399Z,962.34
2019-06-07T11:21:48.329Z,962.31
2019-06-07T11:22:48.311Z,962.32
2019-06-07T11:23:48.241Z,962.33
2019-06-07T11:24:48.193Z,962.32
2019-06-07T11:25:48.188Z,962.33
2019-06-07T11:26:48.108Z,962.36
2019-06-07T11:27:48.068Z,962.35
2019-06-07T11:28:48.023Z,962.36
2019-06-07T11:29:47.979Z,962.38
2019-06-07T11:30:47.956Z,962.32
2019-06-07T11:31:47.893Z,962.35
2019-06-07T11:32:47.847Z,962.44
2019-06-07T11:33:47.835Z,962.41
2019-06-07T11:34:47.762Z,962.45
2019-06-07T11:35:47.752Z,962.47
2019-06-07T11:36:50.975Z,962.45
2019-06-07T11:37:47.635Z,962.42
2019-06-07T11:38:47.594Z,962.37
2019-06-07T11:39:47.589Z,962.38
2019-06-07T11:40:47.506Z,962.36
2019-06-07T11:41:47.463Z,962.36
2019-06-07T11:42:47.458Z,962.36
2019-06-07T11:43:47.374Z,962.30
2019-06-07T11:44:56.951Z,962.30
2019-06-07T11:45:47.295Z,962.29
2019-06-07T11:46:47.247Z,962.29
2019-06-07T11:47:47.241Z,962.33
2019-06-07T11:48:47.167Z,962.31
2019-06-07T11:49:47.124Z,962.28
2019-06-07T11:50:47.111Z,962.21
2019-06-07T11:51:47.038Z,962.20
2019-06-07T11:52:46.995Z,962.24
2019-06-07T11:53:46.955Z,962.21
2019-06-07T11:54:48.157Z,962.21
2019-06-07T11:55:46.900Z,962.15
2019-06-07T11:56:46.825Z,962.11
2019-06-07T11:57:46.779Z,962.09
2019-06-07T11:58:46.746Z,962.11
2019-06-07T11:59:46.708Z,962.05
2019-06-07T12:00:46.689Z,962.03
2019-06-07T12:01:46.617Z,962.01
2019-06-07T12:02:46.637Z,961.97
2019-06-07T12:03:46.532Z,962.00
2019-06-07T12:04:46.487Z,961.95
2019-06-07T12:05:46.445Z,961.96
2019-06-07T12:06:46.404Z,961.99
2019-06-07T12:07:46.383Z,961.96
2019-06-07T12:08:46.354Z,961.89
2019-06-07T12:09:55.830Z,961.85
2019-06-07T12:10:46.236Z,961.84
2019-06-07T12:11:46.206Z,961.81
2019-06-07T12:12:46.150Z,961.78
2019-06-07T12:13:46.144Z,961.80
2019-06-07T12:14:46.069Z,961.82
2019-06-07T12:15:49.001Z,961.75
2019-06-07T12:16:45.989Z,961.84
2019-06-07T12:17:45.942Z,961.95
2019-06-07T12:18:45.942Z,961.89
2019-06-07T12:19:45.864Z,961.87
2019-06-07T12:20:45.819Z,961.85
2019-06-07T12:21:45.776Z,961.87
2019-06-07T12:22:45.736Z,961.87
2019-06-07T12:23:45.724Z,961.88
2019-06-07T12:24:45.662Z,962.00
2019-06-07T12:25:45.614Z,961.94
2019-06-07T12:26:45.575Z,961.89
2019-06-07T12:27:45.635Z,961.86
2019-06-07T12:28:45.486Z,961.90
2019-06-07T12:29:45.449Z,961.90
2019-06-07T12:30:45.402Z,961.94
2019-06-07T12:31:45.376Z,961.86
2019-06-07T12:32:45.361Z,961.91
2019-06-07T12:33:45.284Z,961.86
2019-06-07T12:34:45.238Z,961.83
2019-06-07T12:35:45.195Z,961.83
2019-06-07T12:36:45.152Z,961.86
2019-06-07T12:37:45.194Z,961.86